Time;durP1;ratioP1;P1;durP2;ratioP2;P2;SDS_P1;SDS_P2;PMS_P1;PMS_P2;Temp;Humidity;BMP_temperature;BMP_pressure;BME280_temperature;BME280_humidity;BME280_pressure;Samples;Min_cycle;Max_cycle;Signal;HPM_P1;HPM_P2
2023/05/15 00:01:15;;;;;;;35.47;23.55;;;11.80;99.90;;;;;;5093829;28;20043;-62
2023/05/15 00:03:42;;;;;;;32.90;23.10;;;11.80;99.90;;;;;;5077560;28;20055;-63
2023/05/15 00:06:08;;;;;;;29.88;21.17;;;11.80;99.90;;;;;;5094497;28;20051;-62
2023/05/15 00:08:34;;;;;;;31.15;21.38;;;11.80;99.90;;;;;;5077687;28;20093;-63
2023/05/15 00:11:00;;;;;;;31.25;21.45;;;11.80;99.90;;;;;;5094113;28;20437;-64
2023/05/15 00:13:27;;;;;;;31.88;20.67;;;11.70;99.90;;;;;;5094286;28;20429;-63
2023/05/15 00:15:53;;;;;;;32.63;23.08;;;11.70;99.90;;;;;;5094048;28;20048;-63
2023/05/15 00:18:19;;;;;;;31.10;20.55;;;11.80;99.90;;;;;;5094732;28;20134;-63
2023/05/15 00:20:45;;;;;;;29.80;20.17;;;11.80;99.90;;;;;;5112787;28;20228;-62
2023/05/15 00:23:12;;;;;;;27.88;19.38;;;11.80;99.90;;;;;;5114248;28;20092;-64
2023/05/15 00:25:38;;;;;;;31.52;20.80;;;11.80;99.90;;;;;;5114578;28;20054;-65
2023/05/15 00:28:04;;;;;;;31.02;20.92;;;11.80;99.90;;;;;;5114439;28;20119;-63
2023/05/15 00:30:30;;;;;;;30.15;20.83;;;11.70;99.90;;;;;;5113270;28;20047;-63
2023/05/15 00:32:57;;;;;;;34.78;22.15;;;11.70;99.90;;;;;;5114107;28;20392;-64
2023/05/15 00:35:23;;;;;;;32.08;22.45;;;11.70;99.90;;;;;;5115316;27;20047;-64
2023/05/15 00:37:49;;;;;;;27.55;21.17;;;11.60;99.90;;;;;;5118786;27;20083;-65
2023/05/15 00:40:20;;;;;;;31.75;22.92;;;11.60;99.90;;;;;;5102780;28;20043;-64
2023/05/15 00:42:46;;;;;;;32.42;20.92;;;11.40;99.90;;;;;;5097953;28;20055;-64
2023/05/15 00:45:15;;;;;;;32.83;22.73;;;11.30;99.90;;;;;;5098180;28;20079;-65
2023/05/15 00:47:42;;;;;;;32.28;22.95;;;11.30;99.90;;;;;;5097996;28;20055;-64
2023/05/15 00:50:09;;;;;;;35.00;22.60;;;11.30;99.90;;;;;;5097818;28;20047;-62
2023/05/15 00:52:36;;;;;;;34.05;23.55;;;11.20;99.90;;;;;;5080734;28;20048;-62
2023/05/15 00:55:03;;;;;;;34.17;21.45;;;11.00;99.90;;;;;;5097461;28;20050;-64
2023/05/15 00:57:30;;;;;;;34.55;22.17;;;11.00;99.90;;;;;;5097619;28;20055;-63
2023/05/15 00:59:57;;;;;;;33.15;20.63;;;11.00;99.90;;;;;;5097642;28;20081;-62
2023/05/15 01:02:24;;;;;;;31.35;20.27;;;11.00;99.90;;;;;;5096840;28;20051;-64
2023/05/15 01:04:50;;;;;;;33.20;22.25;;;11.10;99.90;;;;;;5097809;28;20043;-63
2023/05/15 01:07:17;;;;;;;32.78;21.02;;;11.00;99.90;;;;;;5097779;28;20101;-62
2023/05/15 01:09:46;;;;;;;30.40;20.90;;;11.00;99.90;;;;;;5097731;28;20050;-62
2023/05/15 01:12:15;;;;;;;31.65;19.95;;;11.00;99.90;;;;;;5080580;28;20082;-64
2023/05/15 01:14:41;;;;;;;29.52;19.00;;;11.00;99.90;;;;;;5097855;28;20424;-62
2023/05/15 01:17:08;;;;;;;28.60;19.20;;;11.00;99.90;;;;;;5097111;28;20096;-64
2023/05/15 01:19:35;;;;;;;26.45;19.52;;;11.00;99.90;;;;;;5097609;28;20104;-64
2023/05/15 01:22:38;;;;;;;26.88;19.23;;;11.00;99.90;;;;;;5096357;28;20456;-64
2023/05/15 01:25:55;;;;;;;30.02;20.02;;;11.10;99.90;;;;;;5083683;28;20116;-64
2023/05/15 01:28:30;;;;;;;27.02;18.42;;;11.00;99.90;;;;;;4996187;28;20052;-66
2023/05/15 01:30:58;;;;;;;31.05;19.23;;;11.00;99.90;;;;;;4995629;28;20116;-63
2023/05/15 01:33:29;;;;;;;29.90;19.65;;;10.90;99.90;;;;;;5040144;28;20104;-63
2023/05/15 01:36:08;;;;;;;28.50;21.13;;;10.80;99.90;;;;;;5059762;28;20067;-62
2023/05/15 01:38:45;;;;;;;30.45;20.88;;;10.80;99.90;;;;;;5076459;28;20064;-64
2023/05/15 01:41:22;;;;;;;29.63;20.67;;;10.70;99.90;;;;;;5072647;28;20048;-66
2023/05/15 01:44:08;;;;;;;29.00;19.38;;;10.60;99.90;;;;;;5057050;28;20102;-65
2023/05/15 01:46:41;;;;;;;31.95;19.92;;;10.70;99.90;;;;;;5055840;28;20514;-62
2023/05/15 01:49:11;;;;;;;28.15;19.25;;;10.70;99.90;;;;;;5061924;28;20456;-63
2023/05/15 01:51:39;;;;;;;28.33;19.95;;;10.80;99.90;;;;;;5075510;28;20048;-63
2023/05/15 01:54:07;;;;;;;29.63;19.25;;;10.70;99.90;;;;;;5076613;28;20052;-64
2023/05/15 01:56:35;;;;;;;28.00;18.38;;;10.80;99.90;;;;;;5076417;28;20097;-65
2023/05/15 01:59:03;;;;;;;32.25;19.60;;;10.70;99.90;;;;;;5076220;28;20055;-64
2023/05/15 02:01:31;;;;;;;28.20;19.70;;;10.80;99.90;;;;;;5075740;28;20418;-64
2023/05/15 02:04:00;;;;;;;27.80;18.48;;;10.80;99.90;;;;;;5076225;28;20125;-62
2023/05/15 02:06:27;;;;;;;30.55;21.60;;;10.70;99.90;;;;;;5075929;28;20052;-64
2023/05/15 02:08:56;;;;;;;31.33;20.85;;;10.70;99.90;;;;;;5077690;28;20036;-63
2023/05/15 02:11:22;;;;;;;30.30;21.05;;;10.80;99.90;;;;;;5095814;28;20052;-64
2023/05/15 02:13:50;;;;;;;34.45;20.55;;;10.80;99.90;;;;;;5096419;28;20051;-62
2023/05/15 02:16:16;;;;;;;32.58;21.65;;;10.80;99.90;;;;;;5096003;28;20055;-65
2023/05/15 02:18:43;;;;;;;32.28;21.65;;;10.80;99.90;;;;;;5094358;28;20410;-64
2023/05/15 02:21:09;;;;;;;32.85;22.42;;;10.90;99.90;;;;;;5075498;28;20411;-62
2023/05/15 02:23:35;;;;;;;28.88;19.67;;;10.80;99.90;;;;;;5075955;28;20461;-62
2023/05/15 02:26:29;;;;;;;27.85;19.23;;;10.80;99.90;;;;;;5075478;28;20043;-65
2023/05/15 02:29:14;;;;;;;26.73;17.83;;;10.80;99.90;;;;;;5087925;28;20051;-63
2023/05/15 02:31:46;;;;;;;29.42;20.33;;;10.70;99.90;;;;;;5111712;27;20051;-64
2023/05/15 02:34:26;;;;;;;;;;;10.70;99.90;;;;;;5116834;27;20043;-64
2023/05/15 02:36:59;;;;;;;28.05;18.90;;;10.60;99.90;;;;;;5116119;27;19927;-65
2023/05/15 02:39:26;;;;;;;27.95;18.45;;;10.60;99.90;;;;;;5115337;27;20412;-63
2023/05/15 02:41:53;;;;;;;29.10;20.58;;;10.50;99.90;;;;;;5098603;27;20051;-64
2023/05/15 02:44:20;;;;;;;25.95;18.10;;;10.50;99.90;;;;;;5116453;27;20455;-62
2023/05/15 02:46:47;;;;;;;29.80;20.40;;;10.50;99.90;;;;;;5116307;27;20043;-66
2023/05/15 02:49:15;;;;;;;30.27;19.95;;;10.60;99.90;;;;;;5132795;27;20047;-63
2023/05/15 02:51:43;;;;;;;29.70;19.33;;;10.60;99.90;;;;;;5115665;27;20047;-63
2023/05/15 02:54:10;;;;;;;26.17;18.10;;;10.60;99.90;;;;;;5134338;27;20043;-62
2023/05/15 02:56:36;;;;;;;30.60;20.33;;;10.60;99.90;;;;;;5116162;27;20101;-64
2023/05/15 02:59:02;;;;;;;28.88;20.63;;;10.50;99.90;;;;;;5110931;28;20044;-63
2023/05/15 03:01:29;;;;;;;29.58;19.55;;;10.50;99.90;;;;;;5095143;28;20146;-64
2023/05/15 03:03:56;;;;;;;24.48;17.63;;;10.50;99.90;;;;;;5095316;28;20040;-64
2023/05/15 03:06:22;;;;;;;26.10;19.38;;;10.40;99.90;;;;;;5095806;28;20077;-66
2023/05/15 03:08:48;;;;;;;28.55;19.15;;;10.40;99.90;;;;;;5096730;27;20051;-65
2023/05/15 03:11:18;;;;;;;30.13;20.27;;;10.30;99.90;;;;;;5133747;27;20051;-62
2023/05/15 03:13:44;;;;;;;29.75;20.13;;;10.30;99.90;;;;;;5115512;27;20463;-63
2023/05/15 03:16:10;;;;;;;29.85;19.08;;;10.20;99.90;;;;;;5115957;27;20115;-63
2023/05/15 03:18:36;;;;;;;29.25;19.00;;;10.10;99.90;;;;;;5115323;27;20111;-64
2023/05/15 03:21:03;;;;;;;27.85;20.48;;;10.10;99.90;;;;;;5077997;28;20085;-63
2023/05/15 03:23:30;;;;;;;28.20;19.90;;;10.10;99.90;;;;;;5113658;28;20053;-64
2023/05/15 03:25:58;;;;;;;32.00;20.20;;;10.10;99.90;;;;;;5095360;28;20052;-64
2023/05/15 03:28:25;;;;;;;29.33;19.73;;;9.90;99.90;;;;;;5095012;28;20044;-64
2023/05/15 03:30:51;;;;;;;29.40;19.13;;;10.00;99.90;;;;;;5094976;28;20481;-63
2023/05/15 03:33:17;;;;;;;28.50;19.23;;;9.90;99.90;;;;;;5113423;28;20044;-62
2023/05/15 03:35:43;;;;;;;26.83;17.88;;;10.00;99.90;;;;;;5095332;28;20376;-63
2023/05/15 03:38:10;;;;;;;25.70;18.00;;;10.10;99.90;;;;;;5095915;28;20393;-64
2023/05/15 03:40:39;;;;;;;27.77;18.38;;;10.20;99.90;;;;;;5111898;27;20348;-64
2023/05/15 03:43:05;;;;;;;25.17;16.90;;;10.20;99.90;;;;;;5115942;27;20455;-63
2023/05/15 03:45:33;;;;;;;28.08;17.70;;;10.10;99.90;;;;;;5115333;27;20047;-63
2023/05/15 03:48:00;;;;;;;26.85;18.63;;;10.20;99.90;;;;;;5098779;28;20051;-63
2023/05/15 03:50:26;;;;;;;26.88;18.30;;;10.30;99.90;;;;;;5115219;28;20524;-63
2023/05/15 03:52:54;;;;;;;25.70;18.52;;;10.30;99.90;;;;;;5115236;28;20059;-64
2023/05/15 03:55:20;;;;;;;27.52;17.35;;;10.30;99.90;;;;;;5115324;28;20054;-65
2023/05/15 03:57:47;;;;;;;28.50;18.20;;;10.30;99.90;;;;;;5133633;28;20203;-64
2023/05/15 04:00:13;;;;;;;23.77;18.75;;;10.30;99.90;;;;;;5101523;28;20062;-64
2023/05/15 04:02:41;;;;;;;24.65;17.67;;;10.30;99.90;;;;;;5094801;28;20055;-63
2023/05/15 04:05:08;;;;;;;22.23;17.08;;;10.30;99.90;;;;;;5078410;28;20047;-63
2023/05/15 04:07:36;;;;;;;25.13;16.48;;;10.40;99.90;;;;;;5095070;28;20448;-64
2023/05/15 04:10:03;;;;;;;25.25;16.92;;;10.40;99.90;;;;;;5106760;27;20508;-63
2023/05/15 04:12:32;;;;;;;25.92;18.23;;;10.40;99.90;;;;;;5120147;27;20054;-64
2023/05/15 04:15:20;;;;;;;23.90;17.52;;;10.40;99.90;;;;;;5102116;27;20051;-64
2023/05/15 04:17:48;;;;;;;26.33;17.58;;;10.40;99.90;;;;;;5119232;27;20076;-64
2023/05/15 04:20:16;;;;;;;26.02;17.95;;;10.30;99.90;;;;;;5105257;28;20051;-64
2023/05/15 04:22:43;;;;;;;26.20;17.98;;;10.20;99.90;;;;;;5097957;28;20347;-63
2023/05/15 04:25:11;;;;;;;25.58;16.92;;;10.20;99.90;;;;;;5098486;28;20039;-63
2023/05/15 04:27:37;;;;;;;24.10;16.77;;;10.10;99.90;;;;;;5098374;28;20066;-63
2023/05/15 04:30:04;;;;;;;23.15;15.68;;;10.20;99.90;;;;;;5098338;28;20105;-63
2023/05/15 04:32:32;;;;;;;24.83;16.30;;;10.20;99.90;;;;;;5097946;28;20104;-64
2023/05/15 04:35:04;;;;;;;24.52;16.35;;;10.30;99.90;;;;;;5097985;28;20063;-64
2023/05/15 04:37:32;;;;;;;24.05;16.15;;;10.30;99.90;;;;;;5098700;28;20521;-62
2023/05/15 04:39:58;;;;;;;22.48;15.75;;;10.30;99.90;;;;;;5098517;28;20047;-63
2023/05/15 04:42:25;;;;;;;22.17;15.20;;;10.40;99.90;;;;;;5097696;28;20047;-64
2023/05/15 04:44:52;;;;;;;21.05;14.90;;;10.50;99.90;;;;;;5116741;28;20040;-65
2023/05/15 04:47:18;;;;;;;23.77;16.25;;;10.50;99.90;;;;;;5098467;28;20452;-64
2023/05/15 04:49:46;;;;;;;21.70;15.10;;;10.60;99.90;;;;;;5098177;28;20043;-64
2023/05/15 04:52:13;;;;;;;23.30;15.68;;;10.60;99.90;;;;;;5081528;28;20043;-65
2023/05/15 04:54:39;;;;;;;19.90;14.73;;;10.60;99.90;;;;;;5098111;28;20104;-65
2023/05/15 04:57:05;;;;;;;21.83;14.05;;;10.70;99.90;;;;;;5090241;28;20062;-66
2023/05/15 04:59:31;;;;;;;18.63;13.95;;;10.70;99.90;;;;;;5097897;28;20058;-63
2023/05/15 05:01:58;;;;;;;22.33;14.60;;;10.80;99.90;;;;;;5110490;27;20054;-63
2023/05/15 05:04:25;;;;;;;23.02;15.73;;;10.80;99.90;;;;;;5097034;28;20048;-64
2023/05/15 05:06:51;;;;;;;23.75;15.25;;;10.80;99.90;;;;;;5107698;27;20043;-65
2023/05/15 05:09:18;;;;;;;23.00;15.60;;;10.80;99.90;;;;;;5105860;28;20096;-65
2023/05/15 05:11:45;;;;;;;19.85;15.38;;;10.80;99.90;;;;;;5095852;28;20580;-65
2023/05/15 05:14:13;;;;;;;22.25;16.25;;;10.70;99.90;;;;;;5117405;27;20100;-65
2023/05/15 05:16:40;;;;;;;21.85;15.77;;;10.70;99.90;;;;;;5080459;28;20096;-63
2023/05/15 05:19:06;;;;;;;21.00;14.30;;;10.90;99.90;;;;;;5097747;28;20047;-65
2023/05/15 05:21:34;;;;;;;21.17;14.32;;;11.00;99.90;;;;;;5079277;28;20048;-64
2023/05/15 05:24:00;;;;;;;22.77;15.50;;;11.10;99.90;;;;;;5097284;28;20058;-62
2023/05/15 05:26:26;;;;;;;21.15;15.13;;;11.20;99.90;;;;;;5089358;28;20604;-67
2023/05/15 05:28:53;;;;;;;23.92;16.85;;;11.20;99.90;;;;;;5115440;27;20062;-63
2023/05/15 05:31:19;;;;;;;21.88;15.63;;;11.40;99.90;;;;;;5102962;27;20466;-65
2023/05/15 05:33:48;;;;;;;23.58;17.60;;;11.30;99.90;;;;;;5117923;27;20385;-65
2023/05/15 05:36:47;;;;;;;23.58;16.75;;;11.30;99.90;;;;;;5117245;27;20100;-65
2023/05/15 05:39:32;;;;;;;24.23;16.33;;;11.60;99.90;;;;;;5112830;28;20056;-65
2023/05/15 05:42:31;;;;;;;19.65;15.75;;;12.00;99.90;;;;;;5095909;28;20395;-63
2023/05/15 05:44:57;;;;;;;22.70;14.48;;;12.60;99.90;;;;;;5095325;28;20149;-64
2023/05/15 05:47:23;;;;;;;21.27;14.52;;;13.00;99.90;;;;;;5113659;28;20048;-65
2023/05/15 05:49:50;;;;;;;19.05;14.02;;;13.70;99.90;;;;;;5096694;28;20126;-63
2023/05/15 05:52:23;;;;;;;20.88;15.43;;;14.50;99.90;;;;;;5114480;28;20105;-65
2023/05/15 05:54:51;;;;;;;17.98;14.30;;;15.00;99.90;;;;;;5096612;28;20043;-63
2023/05/15 05:57:19;;;;;;;18.95;14.35;;;15.70;99.90;;;;;;5096491;28;20101;-63
2023/05/15 05:59:45;;;;;;;19.25;14.23;;;16.00;99.90;;;;;;5103099;28;20058;-65
2023/05/15 06:02:12;;;;;;;18.73;14.77;;;16.40;99.90;;;;;;5094502;28;20471;-64
2023/05/15 06:04:38;;;;;;;18.27;15.55;;;16.90;99.90;;;;;;5061347;28;20054;-64
2023/05/15 06:07:04;;;;;;;18.10;15.32;;;16.80;99.90;;;;;;5095246;28;20480;-64
2023/05/15 06:09:31;;;;;;;17.63;14.38;;;17.40;99.90;;;;;;5094511;28;20043;-62
2023/05/15 06:11:59;;;;;;;19.60;16.25;;;17.80;99.90;;;;;;5078363;28;20372;-65
2023/05/15 06:14:25;;;;;;;18.15;15.57;;;18.10;99.90;;;;;;5113060;28;20116;-66
2023/05/15 06:16:51;;;;;;;21.35;15.35;;;17.90;99.90;;;;;;5113500;28;20052;-66
2023/05/15 06:19:18;;;;;;;18.95;14.73;;;17.80;99.90;;;;;;5112972;28;20059;-64
2023/05/15 06:21:44;;;;;;;19.60;15.80;;;17.80;99.90;;;;;;5113794;28;20043;-65
2023/05/15 06:24:10;;;;;;;17.95;13.52;;;17.60;99.90;;;;;;5112514;27;20055;-64
2023/05/15 06:26:40;;;;;;;18.95;13.93;;;18.10;99.90;;;;;;5113151;28;20105;-67
2023/05/15 06:29:08;;;;;;;19.42;16.60;;;18.50;99.90;;;;;;5112567;28;20651;-64
2023/05/15 06:31:34;;;;;;;19.27;15.75;;;18.80;99.90;;;;;;5095285;28;20386;-64
2023/05/15 06:34:00;;;;;;;15.90;14.10;;;19.00;99.90;;;;;;5078602;28;20055;-65
2023/05/15 06:36:27;;;;;;;18.05;13.05;;;19.10;99.90;;;;;;5113314;28;20452;-64
2023/05/15 06:38:53;;;;;;;18.65;14.98;;;19.50;99.90;;;;;;5095166;28;20388;-66
2023/05/15 06:41:20;;;;;;;16.33;14.52;;;19.30;99.90;;;;;;5091431;28;20402;-62
2023/05/15 06:43:46;;;;;;;17.52;15.23;;;19.60;99.90;;;;;;5111619;28;20528;-63
2023/05/15 06:46:15;;;;;;;18.48;13.73;;;19.40;99.90;;;;;;5095365;28;20448;-62
2023/05/15 06:48:41;;;;;;;17.77;14.63;;;19.20;99.90;;;;;;5095419;28;20482;-62
2023/05/15 06:51:07;;;;;;;17.90;15.98;;;19.20;99.90;;;;;;5113037;28;20398;-65
2023/05/15 06:53:33;;;;;;;17.77;14.90;;;19.10;99.90;;;;;;5113750;28;20132;-62
2023/05/15 06:56:00;;;;;;;18.02;16.08;;;18.80;99.90;;;;;;5113537;28;20410;-62
2023/05/15 06:58:26;;;;;;;18.08;14.70;;;18.60;99.90;;;;;;5113191;28;20532;-60
2023/05/15 07:00:52;;;;;;;17.05;14.60;;;19.10;99.90;;;;;;5094805;28;20055;-62
2023/05/15 07:03:18;;;;;;;18.30;15.02;;;18.70;99.90;;;;;;5095696;28;20044;-62
2023/05/15 07:05:45;;;;;;;17.90;15.50;;;17.90;99.90;;;;;;5113506;28;20040;-64
2023/05/15 07:08:11;;;;;;;18.10;15.10;;;17.60;99.90;;;;;;5113737;28;20048;-64
2023/05/15 07:10:38;;;;;;;19.00;15.60;;;17.20;99.90;;;;;;5113497;28;20503;-61
2023/05/15 07:13:04;;;;;;;19.23;14.80;;;16.80;99.90;;;;;;5113466;28;20528;-61
2023/05/15 07:15:31;;;;;;;18.75;15.07;;;16.50;99.90;;;;;;5112814;28;20379;-62
2023/05/15 07:17:57;;;;;;;20.70;16.00;;;16.60;99.90;;;;;;5094949;28;20043;-62
2023/05/15 07:20:23;;;;;;;19.08;15.27;;;16.30;99.90;;;;;;5112267;28;20063;-62
2023/05/15 07:22:49;;;;;;;19.30;14.82;;;16.60;99.90;;;;;;5113045;28;20044;-63
2023/05/15 07:25:16;;;;;;;21.83;15.80;;;16.50;99.90;;;;;;5113229;28;20048;-64
2023/05/15 07:27:42;;;;;;;18.70;15.00;;;16.50;99.90;;;;;;5077886;28;20059;-62
2023/05/15 07:30:09;;;;;;;18.02;14.27;;;16.60;99.90;;;;;;5112556;28;20044;-62
2023/05/15 07:32:37;;;;;;;16.80;13.27;;;16.80;99.90;;;;;;5095154;28;20055;-61
2023/05/15 07:35:04;;;;;;;16.48;14.65;;;16.70;99.90;;;;;;5112543;28;20387;-62
2023/05/15 07:37:30;;;;;;;18.58;13.63;;;16.70;99.90;;;;;;5095000;28;20051;-62
2023/05/15 07:39:57;;;;;;;20.00;15.20;;;16.90;99.90;;;;;;5093990;28;20051;-63
2023/05/15 07:42:24;;;;;;;16.95;13.32;;;17.10;99.90;;;;;;5078238;28;20055;-62
2023/05/15 07:44:51;;;;;;;16.67;14.40;;;17.40;99.90;;;;;;5077236;28;20051;-64
2023/05/15 07:47:17;;;;;;;17.17;13.90;;;17.50;99.90;;;;;;5113309;28;20040;-64
2023/05/15 07:49:43;;;;;;;19.15;13.77;;;17.50;99.90;;;;;;5076781;28;20054;-62
2023/05/15 07:52:11;;;;;;;17.10;14.10;;;17.50;99.90;;;;;;5112351;28;20480;-63
2023/05/15 07:54:38;;;;;;;18.20;14.80;;;17.50;99.90;;;;;;5112675;28;20108;-63
2023/05/15 07:57:05;;;;;;;18.45;15.98;;;17.30;99.90;;;;;;5094655;28;20456;-63
2023/05/15 07:59:31;;;;;;;17.48;14.63;;;17.10;99.90;;;;;;5112438;28;20051;-62
2023/05/15 08:01:57;;;;;;;17.83;13.27;;;17.30;99.90;;;;;;5112239;28;20055;-63
2023/05/15 08:04:23;;;;;;;17.73;13.50;;;16.90;99.90;;;;;;5094830;28;20044;-63
2023/05/15 08:06:50;;;;;;;18.33;14.52;;;16.90;99.90;;;;;;5112473;28;20479;-63
2023/05/15 08:09:16;;;;;;;16.85;13.10;;;16.90;99.90;;;;;;5094092;28;20043;-61
2023/05/15 08:11:43;;;;;;;18.13;14.50;;;17.30;99.90;;;;;;5094616;28;20051;-62
2023/05/15 08:14:10;;;;;;;21.48;15.05;;;17.20;99.90;;;;;;5094347;28;20048;-64
2023/05/15 08:16:37;;;;;;;16.27;13.70;;;17.10;99.90;;;;;;5095054;28;20507;-63
2023/05/15 08:19:05;;;;;;;16.92;14.25;;;17.00;99.90;;;;;;5093602;28;20047;-62
2023/05/15 08:21:32;;;;;;;19.40;14.10;;;16.90;99.90;;;;;;5077843;28;20051;-62
2023/05/15 08:23:58;;;;;;;16.75;14.95;;;17.00;99.90;;;;;;5094146;28;20391;-62
2023/05/15 08:26:25;;;;;;;20.60;15.18;;;17.00;99.90;;;;;;5094652;28;20049;-63
2023/05/15 08:28:51;;;;;;;18.45;14.20;;;16.70;99.90;;;;;;5093762;28;20047;-63
2023/05/15 08:31:18;;;;;;;16.17;13.43;;;16.90;99.90;;;;;;5094443;28;20109;-63
2023/05/15 08:33:44;;;;;;;16.80;14.10;;;17.20;99.90;;;;;;5111933;28;20399;-65
2023/05/15 08:36:10;;;;;;;17.85;15.05;;;17.30;99.90;;;;;;5077436;28;20120;-63
2023/05/15 08:38:37;;;;;;;16.70;14.82;;;17.30;99.90;;;;;;5111926;28;20063;-62
2023/05/15 08:41:47;;;;;;;15.80;13.75;;;17.00;99.90;;;;;;5112270;28;20062;-61
2023/05/15 08:44:13;;;;;;;19.60;14.27;;;16.90;99.90;;;;;;5090071;28;20051;-63
2023/05/15 08:46:40;;;;;;;15.13;13.52;;;16.70;99.90;;;;;;5112472;28;20124;-63
2023/05/15 08:49:27;;;;;;;14.55;12.95;;;16.80;99.90;;;;;;5111593;28;20109;-62
2023/05/15 08:51:55;;;;;;;17.52;14.48;;;16.80;99.90;;;;;;5112026;28;20047;-62
2023/05/15 08:54:21;;;;;;;16.23;13.85;;;16.90;99.90;;;;;;5112372;28;20044;-64
2023/05/15 08:56:48;;;;;;;14.52;12.77;;;16.90;99.90;;;;;;5114155;28;20108;-61
2023/05/15 08:59:14;;;;;;;17.08;14.07;;;16.90;99.90;;;;;;5115291;28;20056;-62
2023/05/15 09:01:41;;;;;;;15.88;13.10;;;16.90;99.90;;;;;;5081164;28;20462;-63
2023/05/15 09:04:08;;;;;;;17.23;15.18;;;16.90;99.90;;;;;;5097747;28;20044;-63
2023/05/15 09:06:35;;;;;;;18.35;15.48;;;16.90;99.90;;;;;;5115818;28;20074;-62
2023/05/15 09:09:04;;;;;;;18.00;14.20;;;16.90;99.90;;;;;;5115611;28;20055;-64
2023/05/15 09:11:31;;;;;;;20.05;16.00;;;16.90;99.90;;;;;;5077819;28;20109;-63
2023/05/15 09:13:58;;;;;;;18.80;13.82;;;16.70;99.90;;;;;;5077629;28;20052;-61
2023/05/15 09:16:25;;;;;;;16.23;14.55;;;17.00;99.90;;;;;;5095208;28;20051;-62
2023/05/15 09:18:52;;;;;;;18.52;15.25;;;17.00;99.90;;;;;;5094959;28;20117;-63
2023/05/15 09:21:26;;;;;;;17.45;15.63;;;17.10;99.90;;;;;;5097112;28;20409;-62
2023/05/15 09:23:55;;;;;;;19.52;14.73;;;17.20;99.90;;;;;;5115686;28;20113;-63
2023/05/15 09:26:24;;;;;;;17.88;15.35;;;17.20;99.90;;;;;;5097589;28;20052;-62
2023/05/15 09:28:51;;;;;;;19.38;16.73;;;17.30;99.90;;;;;;5096949;28;20047;-65
2023/05/15 09:31:19;;;;;;;19.88;17.67;;;17.40;99.90;;;;;;5110382;27;20047;-62
2023/05/15 09:34:00;;;;;;;21.67;16.23;;;17.30;99.90;;;;;;5118023;27;20051;-62
2023/05/15 09:36:27;;;;;;;20.20;15.95;;;17.40;99.90;;;;;;5117421;27;20055;-62
2023/05/15 09:39:01;;;;;;;19.35;16.90;;;17.40;99.90;;;;;;5100331;27;20051;-61
2023/05/15 09:41:39;;;;;;;16.98;14.80;;;17.40;99.90;;;;;;5097266;28;20043;-61
2023/05/15 09:44:17;;;;;;;20.48;16.67;;;17.50;99.90;;;;;;5097111;28;20548;-61
2023/05/15 09:46:53;;;;;;;21.52;16.10;;;17.50;99.90;;;;;;5080363;28;20048;-63
2023/05/15 09:49:19;;;;;;;20.52;16.35;;;17.60;99.90;;;;;;5085739;28;20043;-63
2023/05/15 09:51:47;;;;;;;19.65;17.08;;;17.70;99.90;;;;;;5096278;28;20052;-62
2023/05/15 09:54:16;;;;;;;20.67;17.35;;;17.80;99.90;;;;;;5094721;28;20105;-63
2023/05/15 09:56:46;;;;;;;21.13;17.80;;;17.90;99.90;;;;;;5100952;28;20044;-64
2023/05/15 09:59:14;;;;;;;19.45;17.45;;;17.80;99.90;;;;;;5114019;28;20059;-63
2023/05/15 10:01:45;;;;;;;18.55;15.65;;;18.00;99.90;;;;;;5114906;28;20039;-63
2023/05/15 10:04:12;;;;;;;20.42;17.83;;;18.40;99.90;;;;;;5108827;27;20488;-62
2023/05/15 10:06:41;;;;;;;18.58;16.63;;;18.30;99.90;;;;;;5098429;28;20485;-64
2023/05/15 10:09:12;;;;;;;18.17;15.93;;;18.20;99.90;;;;;;5078647;28;20409;-62
2023/05/15 10:11:48;;;;;;;21.77;16.65;;;18.30;99.90;;;;;;5115151;28;20044;-63
2023/05/15 10:14:17;;;;;;;21.98;16.90;;;18.10;99.90;;;;;;5117043;27;20356;-62
2023/05/15 10:16:44;;;;;;;17.10;15.30;;;17.90;99.90;;;;;;5100013;27;20467;-63
2023/05/15 10:19:12;;;;;;;18.17;15.38;;;17.90;99.90;;;;;;5098640;27;20061;-62
2023/05/15 10:21:40;;;;;;;18.30;16.15;;;17.80;99.90;;;;;;5114321;28;20040;-63
2023/05/15 10:24:07;;;;;;;17.95;15.18;;;18.00;99.90;;;;;;5114464;28;20051;-65
2023/05/15 10:26:39;;;;;;;19.75;17.50;;;17.90;99.90;;;;;;5114294;28;20051;-63
2023/05/15 10:29:10;;;;;;;22.25;19.33;;;17.80;99.90;;;;;;5095213;28;20433;-62
2023/05/15 10:31:37;;;;;;;19.48;15.90;;;17.80;99.90;;;;;;5094012;28;20044;-62
2023/05/15 10:34:04;;;;;;;17.85;15.43;;;18.00;99.90;;;;;;5093968;28;20101;-65
2023/05/15 10:36:32;;;;;;;20.65;16.83;;;17.90;99.90;;;;;;5075446;28;20460;-63
2023/05/15 10:39:03;;;;;;;18.92;16.50;;;17.80;99.90;;;;;;5075621;28;20059;-62
2023/05/15 10:41:34;;;;;;;20.55;17.27;;;17.90;99.90;;;;;;5113690;28;20052;-64
2023/05/15 10:44:01;;;;;;;16.92;13.93;;;17.80;99.90;;;;;;5113193;28;20039;-62
2023/05/15 10:46:30;;;;;;;19.35;15.52;;;18.00;99.90;;;;;;5112885;28;20558;-62
2023/05/15 10:48:58;;;;;;;18.83;13.60;;;18.10;99.90;;;;;;5111829;28;20474;-62
2023/05/15 10:51:26;;;;;;;15.07;13.38;;;18.50;99.90;;;;;;5113441;28;20104;-63
2023/05/15 10:53:54;;;;;;;16.83;13.13;;;18.30;99.90;;;;;;5096166;28;20047;-62
2023/05/15 10:56:24;;;;;;;19.08;14.05;;;18.40;99.90;;;;;;5095720;28;20047;-64
2023/05/15 10:58:53;;;;;;;15.68;12.95;;;18.30;99.90;;;;;;5113960;28;20047;-64
2023/05/15 11:01:28;;;;;;;13.00;11.65;;;18.40;99.90;;;;;;5114758;28;20047;-62
2023/05/15 11:04:15;;;;;;;14.07;11.13;;;18.40;99.90;;;;;;5114566;28;20044;-62
2023/05/15 11:06:46;;;;;;;11.95;10.65;;;18.70;99.90;;;;;;5112511;28;20482;-62
2023/05/15 11:09:24;;;;;;;11.45;9.98;;;18.80;99.90;;;;;;5111940;28;20237;-63
2023/05/15 11:11:50;;;;;;;12.25;10.45;;;18.80;99.90;;;;;;5096080;28;20035;-66
2023/05/15 11:14:20;;;;;;;12.65;10.35;;;18.80;99.90;;;;;;5095884;28;20116;-61
2023/05/15 11:16:53;;;;;;;11.85;10.43;;;18.80;99.90;;;;;;5095519;28;20055;-61
2023/05/15 11:19:53;;;;;;;12.85;10.55;;;18.60;99.90;;;;;;5112138;28;20062;-63
2023/05/15 11:22:27;;;;;;;10.95;9.45;;;18.80;99.90;;;;;;5110562;28;20044;-65
2023/05/15 11:25:24;;;;;;;12.13;11.00;;;18.90;99.90;;;;;;5113320;28;20105;-62
2023/05/15 11:27:54;;;;;;;10.35;9.35;;;18.60;99.90;;;;;;5094767;28;20036;-63
2023/05/15 11:30:22;;;;;;;11.15;9.50;;;18.80;99.90;;;;;;5084517;28;20058;-66
2023/05/15 11:33:03;;;;;;;10.95;9.20;;;18.60;99.90;;;;;;5095476;28;20062;-61
2023/05/15 11:35:35;;;;;;;10.40;9.07;;;18.60;99.90;;;;;;5113083;28;20048;-62
2023/05/15 11:38:24;;;;;;;10.38;9.05;;;18.70;99.90;;;;;;5112285;28;20460;-62
2023/05/15 11:40:53;;;;;;;10.02;8.80;;;19.00;99.90;;;;;;5112771;28;20084;-65
2023/05/15 11:43:34;;;;;;;12.55;9.65;;;18.80;99.90;;;;;;5113351;28;20047;-63
2023/05/15 11:46:06;;;;;;;10.90;9.80;;;18.90;99.90;;;;;;5113250;28;20047;-61
2023/05/15 11:48:40;;;;;;;14.68;13.27;;;19.10;99.90;;;;;;5094555;28;20061;-62
2023/05/15 11:51:22;;;;;;;14.93;11.45;;;19.00;99.90;;;;;;5096171;28;20128;-62
2023/05/15 11:53:49;;;;;;;12.35;11.05;;;19.00;99.90;;;;;;5113179;28;20448;-63
2023/05/15 11:56:18;;;;;;;15.85;13.20;;;19.20;99.90;;;;;;5113199;28;20112;-64
2023/05/15 11:58:47;;;;;;;14.90;13.05;;;18.90;99.90;;;;;;5112176;28;20395;-63
2023/05/15 12:01:14;;;;;;;13.30;11.10;;;18.90;99.90;;;;;;5108254;28;20367;-63
2023/05/15 12:03:40;;;;;;;12.05;10.55;;;18.90;99.90;;;;;;5094819;28;20043;-61
2023/05/15 12:06:08;;;;;;;14.10;12.70;;;19.00;99.90;;;;;;5111694;28;20039;-63
2023/05/15 12:08:40;;;;;;;12.35;11.00;;;19.00;99.90;;;;;;5112256;28;20043;-64
2023/05/15 12:11:07;;;;;;;12.52;10.43;;;18.80;99.90;;;;;;5112400;28;20043;-63
2023/05/15 12:13:34;;;;;;;13.73;11.80;;;19.00;99.90;;;;;;5128349;28;20417;-63
2023/05/15 12:16:02;;;;;;;10.57;9.43;;;19.10;99.90;;;;;;5115372;28;20104;-62
2023/05/15 12:18:32;;;;;;;12.77;11.45;;;19.20;99.90;;;;;;5114744;28;20397;-62
2023/05/15 12:20:59;;;;;;;9.52;8.27;;;19.20;99.90;;;;;;5117428;28;20047;-62
2023/05/15 12:23:27;;;;;;;12.57;10.13;;;19.20;99.90;;;;;;5112650;28;20040;-62
2023/05/15 12:25:58;;;;;;;10.90;9.75;;;19.20;99.90;;;;;;5094952;28;20044;-62
2023/05/15 12:28:25;;;;;;;11.18;10.07;;;19.10;99.90;;;;;;5094186;28;20120;-62
2023/05/15 12:30:52;;;;;;;15.60;10.02;;;19.00;99.90;;;;;;5126048;27;20047;-63
2023/05/15 12:33:19;;;;;;;12.25;11.05;;;19.20;99.90;;;;;;5137420;27;20447;-62
2023/05/15 12:35:52;;;;;;;13.23;11.38;;;19.40;99.90;;;;;;5136981;27;20043;-64
2023/05/15 12:38:21;;;;;;;14.23;11.65;;;19.30;99.90;;;;;;5136861;27;20047;-63